Time;durP1;ratioP1;P1;durP2;ratioP2;P2;SDS_P1;SDS_P2;PMS_P1;PMS_P2;Temp;Humidity;BMP_temperature;BMP_pressure;BME280_temperature;BME280_humidity;BME280_pressure;Samples;Min_cycle;Max_cycle;Signal;HPM_P1;HPM_P2
2021/07/22 00:00:09;;;;;;;17.83;14.43;;;15.90;99.90;;;;;;5054107;28;20676;-67
2021/07/22 00:02:35;;;;;;;17.30;15.13;;;15.90;99.90;;;;;;5053895;28;20175;-67
2021/07/22 00:05:01;;;;;;;17.80;14.23;;;15.80;99.90;;;;;;5054370;28;20651;-67
2021/07/22 00:07:26;;;;;;;19.50;15.40;;;15.90;99.90;;;;;;5053916;28;20178;-67
2021/07/22 00:09:52;;;;;;;19.43;15.47;;;16.00;99.90;;;;;;5054042;28;20248;-67
2021/07/22 00:12:17;;;;;;;16.77;14.43;;;16.10;99.90;;;;;;5053804;28;20232;-67
2021/07/22 00:14:43;;;;;;;17.67;15.30;;;16.10;99.90;;;;;;5053671;28;20170;-67
2021/07/22 00:17:09;;;;;;;16.53;14.43;;;16.00;99.90;;;;;;5053695;28;20179;-67
2021/07/22 00:19:35;;;;;;;15.83;14.10;;;16.00;99.90;;;;;;5035852;28;20207;-67
2021/07/22 00:22:01;;;;;;;17.43;14.93;;;16.10;99.90;;;;;;5053961;28;20656;-67
2021/07/22 00:24:28;;;;;;;16.87;14.90;;;16.10;99.90;;;;;;5053449;28;20182;-67
2021/07/22 00:26:54;;;;;;;17.67;15.30;;;16.10;99.90;;;;;;5053540;28;20167;-67
2021/07/22 00:29:21;;;;;;;17.73;15.00;;;16.00;99.90;;;;;;5053450;28;20265;-67
2021/07/22 00:31:47;;;;;;;15.03;13.40;;;16.00;99.90;;;;;;5053391;28;20248;-67
2021/07/22 00:34:13;;;;;;;18.90;14.63;;;16.00;99.90;;;;;;5053556;28;20246;-67
2021/07/22 00:36:38;;;;;;;15.63;13.53;;;16.00;99.90;;;;;;5053305;28;20257;-67
2021/07/22 00:39:04;;;;;;;18.07;15.00;;;15.90;99.90;;;;;;5053462;28;20478;-67
2021/07/22 00:41:30;;;;;;;17.40;14.37;;;15.80;99.90;;;;;;5053232;28;20190;-67
2021/07/22 00:43:56;;;;;;;17.27;14.47;;;15.80;99.90;;;;;;5053345;28;20162;-67
2021/07/22 00:46:22;;;;;;;17.30;13.77;;;15.80;99.90;;;;;;5053020;28;20171;-67
2021/07/22 00:48:47;;;;;;;16.63;14.87;;;15.80;99.90;;;;;;5053462;28;20210;-67
2021/07/22 00:51:13;;;;;;;18.27;14.93;;;15.70;99.90;;;;;;5053361;28;20582;-67
2021/07/22 00:53:39;;;;;;;17.90;14.67;;;15.70;99.90;;;;;;5034501;28;20182;-67
2021/07/22 00:56:05;;;;;;;16.17;14.40;;;15.70;99.90;;;;;;5036590;28;20755;-67
2021/07/22 00:58:32;;;;;;;15.70;14.10;;;15.70;99.90;;;;;;5053962;28;20207;-67
2021/07/22 01:00:57;;;;;;;16.97;15.23;;;15.70;99.90;;;;;;5053833;28;20528;-67
2021/07/22 01:03:23;;;;;;;18.10;14.50;;;15.70;99.90;;;;;;5053192;28;20249;-67
2021/07/22 01:05:49;;;;;;;16.90;14.87;;;15.70;99.90;;;;;;5052763;28;20510;-67
2021/07/22 01:08:14;;;;;;;17.10;15.30;;;15.60;99.90;;;;;;5052966;28;20254;-67
2021/07/22 01:10:40;;;;;;;18.40;15.37;;;15.60;99.90;;;;;;5052604;28;20701;-67
2021/07/22 01:13:06;;;;;;;18.17;16.20;;;15.50;99.90;;;;;;5052876;28;20254;-67
2021/07/22 01:15:32;;;;;;;18.20;16.33;;;15.50;99.90;;;;;;5034492;28;20173;-67
2021/07/22 01:17:58;;;;;;;17.10;14.63;;;15.40;99.90;;;;;;5034839;28;20260;-67
2021/07/22 01:20:26;;;;;;;18.37;15.17;;;15.20;99.90;;;;;;5052177;28;20206;-67
2021/07/22 01:22:57;;;;;;;19.03;15.33;;;15.10;99.90;;;;;;5052683;28;20167;-68
2021/07/22 01:25:23;;;;;;;16.90;13.83;;;15.10;99.90;;;;;;5052120;28;20257;-67
2021/07/22 01:27:50;;;;;;;17.93;15.47;;;15.10;99.90;;;;;;5052573;28;20531;-68
2021/07/22 01:30:17;;;;;;;19.70;15.67;;;15.20;99.90;;;;;;5034451;28;20202;-67
2021/07/22 01:32:44;;;;;;;20.13;14.83;;;15.20;99.90;;;;;;5052788;28;20178;-67
2021/07/22 01:35:11;;;;;;;16.03;14.13;;;15.20;99.90;;;;;;5052144;28;20249;-68
2021/07/22 01:37:41;;;;;;;17.87;15.23;;;15.20;99.90;;;;;;5034164;28;20610;-67
2021/07/22 01:40:07;;;;;;;18.20;15.27;;;15.20;99.90;;;;;;5052245;28;20207;-67
2021/07/22 01:42:33;;;;;;;17.57;14.57;;;15.10;99.90;;;;;;5051918;28;20197;-67
2021/07/22 01:44:59;;;;;;;18.00;15.33;;;15.10;99.90;;;;;;5052153;28;20674;-67
2021/07/22 01:47:24;;;;;;;17.73;15.40;;;14.90;99.90;;;;;;5052051;28;20179;-68
2021/07/22 01:49:51;;;;;;;16.30;14.03;;;14.90;99.90;;;;;;5052041;28;20218;-68
2021/07/22 01:52:16;;;;;;;16.30;13.37;;;15.00;99.90;;;;;;5051920;28;20175;-68
2021/07/22 01:54:42;;;;;;;16.43;14.67;;;15.00;99.90;;;;;;5051835;28;20175;-68
2021/07/22 01:57:08;;;;;;;15.50;13.23;;;15.00;99.90;;;;;;5034117;28;20182;-68
2021/07/22 01:59:36;;;;;;;14.83;12.87;;;15.10;99.90;;;;;;5051501;28;20756;-68
2021/07/22 02:02:06;;;;;;;16.30;14.07;;;15.00;99.90;;;;;;5052045;28;20174;-67
2021/07/22 02:04:33;;;;;;;17.67;13.40;;;15.10;99.90;;;;;;5051069;28;20178;-67
2021/07/22 02:06:58;;;;;;;16.67;14.33;;;15.10;99.90;;;;;;5051963;28;20198;-67
2021/07/22 02:09:25;;;;;;;17.17;14.00;;;15.00;99.90;;;;;;5051509;28;20691;-67
2021/07/22 02:11:52;;;;;;;16.43;13.83;;;15.10;99.90;;;;;;5051811;28;20178;-68
2021/07/22 02:14:18;;;;;;;15.13;13.63;;;15.10;99.90;;;;;;5051118;28;20197;-67
2021/07/22 02:16:43;;;;;;;15.53;13.53;;;15.00;99.90;;;;;;5051851;28;20175;-67
2021/07/22 02:19:09;;;;;;;21.37;14.13;;;14.90;99.90;;;;;;5051370;28;20210;-68
2021/07/22 02:21:37;;;;;;;15.63;13.70;;;14.90;99.90;;;;;;5051595;28;20177;-67
2021/07/22 02:24:04;;;;;;;17.50;12.73;;;14.80;99.90;;;;;;5051234;28;20652;-67
2021/07/22 02:26:30;;;;;;;16.83;14.27;;;14.90;99.90;;;;;;5033620;28;20170;-67
2021/07/22 02:28:55;;;;;;;15.87;14.17;;;14.90;99.90;;;;;;5033438;28;20199;-67
2021/07/22 02:31:21;;;;;;;15.80;14.00;;;14.80;99.90;;;;;;5033564;28;20179;-68
2021/07/22 02:33:47;;;;;;;15.00;13.43;;;14.80;99.90;;;;;;5051051;28;20187;-67
2021/07/22 02:36:12;;;;;;;17.40;13.70;;;14.80;99.90;;;;;;5051526;28;20666;-67
2021/07/22 02:38:38;;;;;;;19.80;14.07;;;14.80;99.90;;;;;;5051053;28;20206;-68
2021/07/22 02:41:07;;;;;;;16.07;14.10;;;14.90;99.90;;;;;;5033660;28;20179;-68
2021/07/22 02:43:33;;;;;;;16.03;13.73;;;14.80;99.90;;;;;;5051268;28;20200;-69
2021/07/22 02:46:04;;;;;;;15.40;13.43;;;14.70;99.90;;;;;;5051278;28;20650;-67
2021/07/22 02:48:29;;;;;;;16.67;13.80;;;14.60;99.90;;;;;;5050918;28;20552;-67
2021/07/22 02:50:55;;;;;;;15.53;13.43;;;14.60;99.90;;;;;;5034188;28;20186;-67
2021/07/22 02:53:21;;;;;;;18.27;14.77;;;14.60;99.90;;;;;;5051324;28;20601;-68
2021/07/22 02:55:46;;;;;;;16.60;14.37;;;14.50;99.90;;;;;;5051031;28;20182;-67
2021/07/22 02:58:12;;;;;;;22.07;15.60;;;14.50;99.90;;;;;;5051279;28;20166;-67
2021/07/22 03:00:37;;;;;;;19.10;15.60;;;14.50;99.90;;;;;;5051121;28;20216;-67
2021/07/22 03:03:03;;;;;;;18.73;15.47;;;14.40;99.90;;;;;;5033241;28;20181;-67
2021/07/22 03:05:29;;;;;;;17.93;15.10;;;14.40;99.90;;;;;;5050303;28;20179;-68
2021/07/22 03:07:55;;;;;;;17.40;14.60;;;14.40;99.90;;;;;;5051139;28;20203;-67
2021/07/22 03:10:22;;;;;;;20.13;15.10;;;14.40;99.90;;;;;;5033155;28;20202;-68
2021/07/22 03:12:48;;;;;;;19.23;15.63;;;14.50;99.90;;;;;;5050977;28;20207;-67
2021/07/22 03:15:13;;;;;;;20.17;16.40;;;14.50;99.90;;;;;;5051566;28;20199;-68
2021/07/22 03:17:39;;;;;;;18.43;15.17;;;14.50;99.90;;;;;;5054811;28;20170;-67
2021/07/22 03:20:05;;;;;;;20.30;15.70;;;14.60;99.90;;;;;;5054604;28;20574;-68
2021/07/22 03:22:31;;;;;;;21.93;15.37;;;14.50;99.90;;;;;;5054881;28;20241;-68
2021/07/22 03:24:56;;;;;;;19.80;15.47;;;14.60;99.90;;;;;;5036567;28;20171;-67
2021/07/22 03:27:22;;;;;;;20.47;16.13;;;14.60;99.90;;;;;;5054895;28;20175;-67
2021/07/22 03:29:48;;;;;;;17.80;15.27;;;14.60;99.90;;;;;;5054557;28;20555;-67
2021/07/22 03:32:13;;;;;;;16.77;14.87;;;14.60;99.90;;;;;;5036934;28;20310;-67
2021/07/22 03:34:39;;;;;;;18.47;14.70;;;14.60;99.90;;;;;;5054263;28;20536;-68
2021/07/22 03:37:05;;;;;;;20.63;15.07;;;14.60;99.90;;;;;;5054947;28;20301;-67
2021/07/22 03:39:31;;;;;;;17.83;14.33;;;14.50;99.90;;;;;;5053355;28;20297;-67
2021/07/22 03:41:56;;;;;;;18.30;14.80;;;14.50;99.90;;;;;;5054726;28;20186;-68
2021/07/22 03:44:22;;;;;;;17.20;15.40;;;14.50;99.90;;;;;;5054120;28;20189;-68
2021/07/22 03:46:47;;;;;;;16.27;14.50;;;14.50;99.90;;;;;;5054672;28;20505;-68
2021/07/22 03:49:13;;;;;;;15.90;13.63;;;14.60;99.90;;;;;;5054109;28;20206;-67
2021/07/22 03:51:39;;;;;;;19.63;15.27;;;14.60;99.90;;;;;;5036538;28;20240;-67
2021/07/22 03:54:05;;;;;;;17.80;14.50;;;14.60;99.90;;;;;;5036223;28;20612;-68
2021/07/22 03:56:32;;;;;;;16.43;14.07;;;14.60;99.90;;;;;;5054145;28;20224;-67
2021/07/22 03:58:57;;;;;;;19.60;14.30;;;14.60;99.90;;;;;;5054355;28;20199;-67
2021/07/22 04:01:23;;;;;;;16.53;14.40;;;14.70;99.90;;;;;;5053876;28;20185;-68
2021/07/22 04:03:48;;;;;;;16.23;14.53;;;14.60;99.90;;;;;;5053984;28;20175;-68
2021/07/22 04:06:14;;;;;;;20.53;15.67;;;14.70;99.90;;;;;;5054157;28;20178;-67
2021/07/22 04:08:39;;;;;;;18.07;15.57;;;14.70;99.90;;;;;;5053959;28;20756;-68
2021/07/22 04:11:08;;;;;;;16.90;14.90;;;14.60;99.90;;;;;;5053897;28;20178;-68
2021/07/22 04:13:33;;;;;;;18.00;15.00;;;14.80;99.90;;;;;;5053835;28;20653;-68
2021/07/22 04:16:02;;;;;;;17.10;14.63;;;14.90;99.90;;;;;;5053600;28;20257;-68
2021/07/22 04:18:28;;;;;;;18.90;15.07;;;15.00;99.90;;;;;;5053797;28;20420;-68
2021/07/22 04:20:54;;;;;;;15.70;14.03;;;15.10;99.90;;;;;;5053577;28;20295;-68
2021/07/22 04:23:20;;;;;;;19.97;15.23;;;15.20;99.90;;;;;;5054158;28;20189;-68
2021/07/22 04:25:48;;;;;;;23.27;15.83;;;15.30;99.90;;;;;;5053222;28;20387;-68
2021/07/22 04:28:14;;;;;;;18.10;16.13;;;15.40;99.90;;;;;;5053726;28;20258;-68
2021/07/22 04:30:39;;;;;;;19.57;14.63;;;15.50;99.90;;;;;;5053408;28;20581;-67
2021/07/22 04:33:06;;;;;;;18.87;14.90;;;15.50;99.90;;;;;;5053731;28;20174;-68
2021/07/22 04:35:32;;;;;;;16.37;14.00;;;15.40;99.90;;;;;;5052957;28;20182;-68
2021/07/22 04:37:58;;;;;;;16.87;14.97;;;15.50;99.90;;;;;;5035571;28;20182;-68
2021/07/22 04:40:24;;;;;;;19.33;15.77;;;15.60;99.90;;;;;;5053120;28;20202;-68
2021/07/22 04:42:49;;;;;;;17.40;14.40;;;15.80;99.90;;;;;;5053569;28;20218;-68
2021/07/22 04:45:15;;;;;;;15.13;13.53;;;16.00;99.90;;;;;;5053128;28;20210;-68
2021/07/22 04:47:41;;;;;;;15.63;13.93;;;16.20;99.90;;;;;;5053366;28;20190;-68
2021/07/22 04:50:07;;;;;;;19.10;14.70;;;16.30;99.90;;;;;;5035046;28;20206;-68
2021/07/22 04:52:32;;;;;;;18.03;14.10;;;16.50;99.90;;;;;;5035319;28;20175;-68
2021/07/22 04:54:58;;;;;;;15.27;13.63;;;16.60;99.90;;;;;;5052825;28;20236;-68
2021/07/22 04:57:23;;;;;;;15.53;13.93;;;16.70;99.90;;;;;;5053171;28;20518;-68
2021/07/22 04:59:49;;;;;;;16.10;14.40;;;16.80;99.90;;;;;;5052844;28;20298;-68
2021/07/22 05:02:15;;;;;;;14.43;12.93;;;16.80;99.90;;;;;;5053123;28;20163;-68
2021/07/22 05:04:41;;;;;;;15.30;13.60;;;16.80;99.90;;;;;;5052520;28;20175;-68
2021/07/22 05:07:07;;;;;;;15.10;13.60;;;16.90;99.90;;;;;;5053026;28;20175;-68
2021/07/22 05:09:33;;;;;;;15.23;13.37;;;17.00;99.90;;;;;;5034661;28;20205;-68
2021/07/22 05:11:58;;;;;;;14.40;12.90;;;17.30;99.90;;;;;;5035097;28;20582;-68
2021/07/22 05:14:24;;;;;;;15.47;13.87;;;17.50;99.90;;;;;;5052352;28;20197;-68
2021/07/22 05:16:49;;;;;;;17.97;12.17;;;17.80;99.90;;;;;;5052999;28;20179;-68
2021/07/22 05:19:15;;;;;;;16.23;12.83;;;18.00;99.90;;;;;;5052702;28;20195;-68
2021/07/22 05:21:41;;;;;;;16.80;12.87;;;18.20;99.90;;;;;;5031633;28;20180;-68
2021/07/22 05:24:07;;;;;;;13.20;11.80;;;18.30;99.90;;;;;;5032636;28;20176;-68
2021/07/22 05:26:33;;;;;;;15.00;13.30;;;18.60;99.90;;;;;;5052361;28;20301;-68
2021/07/22 05:28:58;;;;;;;13.48;12.05;;;18.80;99.90;;;;;;5052606;28;20194;-68
2021/07/22 05:31:24;;;;;;;15.83;12.10;;;18.90;99.90;;;;;;5052312;28;20182;-68
2021/07/22 05:33:50;;;;;;;15.47;13.10;;;19.00;99.90;;;;;;5051945;28;20193;-68
2021/07/22 05:36:15;;;;;;;14.10;12.70;;;19.00;99.90;;;;;;5034593;28;20186;-68
2021/07/22 05:38:56;;;;;;;14.07;12.50;;;19.10;99.90;;;;;;5051580;28;20691;-68
2021/07/22 05:41:21;;;;;;;13.90;12.50;;;19.10;99.90;;;;;;5044757;28;20181;-68
2021/07/22 05:43:47;;;;;;;13.87;12.07;;;19.10;99.90;;;;;;5042300;28;20540;-68
2021/07/22 05:46:16;;;;;;;14.18;12.90;;;19.20;99.90;;;;;;5034335;28;20201;-68
2021/07/22 05:48:42;;;;;;;14.37;12.63;;;19.20;99.90;;;;;;5051739;28;20242;-68
2021/07/22 05:51:07;;;;;;;14.50;12.57;;;19.10;99.90;;;;;;5052293;28;20206;-68
2021/07/22 05:53:33;;;;;;;16.23;14.27;;;19.30;99.90;;;;;;5051548;28;20179;-68
2021/07/22 05:55:59;;;;;;;13.30;12.00;;;19.50;99.90;;;;;;5034017;28;20171;-68
2021/07/22 05:58:25;;;;;;;14.88;13.38;;;19.90;99.90;;;;;;5033596;28;20202;-68
2021/07/22 06:00:52;;;;;;;13.77;12.38;;;20.30;99.90;;;;;;5051987;28;20174;-68
2021/07/22 06:03:17;;;;;;;15.93;12.90;;;20.70;99.90;;;;;;5051633;28;20269;-68
2021/07/22 06:05:43;;;;;;;13.98;12.68;;;20.90;99.90;;;;;;5051599;28;20582;-68
2021/07/22 06:08:08;;;;;;;13.52;11.75;;;21.20;99.90;;;;;;5051743;28;20488;-68
2021/07/22 06:10:34;;;;;;;14.63;12.15;;;21.30;99.90;;;;;;5051665;28;20179;-68
2021/07/22 06:13:00;;;;;;;12.30;10.98;;;21.20;99.90;;;;;;5051632;28;20277;-68
2021/07/22 06:15:26;;;;;;;15.93;12.30;;;21.20;99.90;;;;;;5051169;28;20175;-68
2021/07/22 06:17:51;;;;;;;16.80;12.65;;;21.20;99.90;;;;;;5051764;28;20213;-68
2021/07/22 06:20:17;;;;;;;14.98;11.85;;;21.20;99.90;;;;;;5051350;28;20540;-68
2021/07/22 06:22:44;;;;;;;13.57;12.13;;;21.40;99.90;;;;;;5051213;28;20182;-68
2021/07/22 06:25:13;;;;;;;15.95;13.00;;;21.40;99.90;;;;;;5055636;28;20220;-68
2021/07/22 06:27:41;;;;;;;21.17;19.02;;;21.10;99.90;;;;;;5058559;28;20221;-68
2021/07/22 06:30:07;;;;;;;17.13;14.90;;;21.00;99.90;;;;;;5033621;28;20198;-68
2021/07/22 06:32:32;;;;;;;16.75;13.13;;;21.10;99.90;;;;;;5051122;28;20258;-68
2021/07/22 06:34:58;;;;;;;16.42;13.55;;;21.50;99.90;;;;;;5060900;28;20258;-68
2021/07/22 06:37:23;;;;;;;16.63;12.60;;;21.80;99.90;;;;;;5043774;28;20175;-68
2021/07/22 06:39:49;;;;;;;15.90;12.75;;;22.40;99.90;;;;;;5066755;28;20210;-68
2021/07/22 06:42:15;;;;;;;14.93;11.95;;;22.90;99.90;;;;;;5051022;28;20177;-68
2021/07/22 06:44:40;;;;;;;14.75;13.20;;;23.30;99.90;;;;;;5050780;28;20170;-68
2021/07/22 06:47:06;;;;;;;17.55;14.18;;;23.60;99.90;;;;;;5051357;28;20167;-68
2021/07/22 06:49:31;;;;;;;19.58;13.65;;;23.90;99.90;;;;;;5050769;28;20202;-68
2021/07/22 06:52:00;;;;;;;17.33;14.10;;;24.00;99.90;;;;;;5054983;28;20174;-68
2021/07/22 06:54:25;;;;;;;14.93;12.68;;;24.00;99.90;;;;;;5055083;28;20224;-68
2021/07/22 06:56:51;;;;;;;15.75;12.95;;;24.30;99.90;;;;;;5055227;28;20182;-68
2021/07/22 06:59:17;;;;;;;14.10;11.45;;;24.50;99.90;;;;;;5055222;28;20285;-68
2021/07/22 07:01:42;;;;;;;14.20;11.15;;;24.70;99.90;;;;;;5037169;28;20182;-68
2021/07/22 07:04:08;;;;;;;16.30;11.32;;;24.80;99.90;;;;;;5036805;28;20704;-68
2021/07/22 07:06:34;;;;;;;12.35;10.95;;;25.00;99.90;;;;;;5036730;28;20216;-68
2021/07/22 07:09:01;;;;;;;13.10;11.35;;;25.10;99.90;;;;;;5036697;28;20199;-68
2021/07/22 07:11:26;;;;;;;13.25;11.77;;;25.30;99.90;;;;;;5054993;28;20194;-68
2021/07/22 07:13:52;;;;;;;13.52;10.75;;;25.50;99.90;;;;;;5054582;28;20652;-68
2021/07/22 07:16:17;;;;;;;15.77;12.30;;;25.90;99.90;;;;;;5054920;28;20175;-68
2021/07/22 07:18:43;;;;;;;15.85;12.00;;;26.20;99.90;;;;;;5054531;28;20680;-68
2021/07/22 07:21:09;;;;;;;14.93;11.20;;;26.60;99.90;;;;;;5037009;28;20179;-68
2021/07/22 07:23:34;;;;;;;18.02;13.80;;;26.80;99.90;;;;;;5036554;28;20171;-68
2021/07/22 07:26:01;;;;;;;17.15;13.40;;;27.00;99.90;;;;;;5054530;28;20183;-69
2021/07/22 07:28:27;;;;;;;16.67;14.40;;;27.50;99.90;;;;;;5054771;28;20195;-69
2021/07/22 07:30:53;;;;;;;18.23;12.48;;;27.90;99.90;;;;;;5052997;28;20216;-69
2021/07/22 07:33:19;;;;;;;16.05;14.27;;;28.30;99.90;;;;;;5054782;28;20177;-69
2021/07/22 07:35:45;;;;;;;17.25;12.52;;;28.70;99.90;;;;;;5054114;28;20587;-69
2021/07/22 07:38:10;;;;;;;19.38;13.60;;;29.00;99.90;;;;;;5054593;28;20278;-69
2021/07/22 07:40:36;;;;;;;17.92;13.02;;;29.10;99.90;;;;;;5054499;28;20281;-69
2021/07/22 07:43:02;;;;;;;19.30;13.73;;;29.10;99.90;;;;;;5054714;28;20262;-69
2021/07/22 07:45:29;;;;;;;18.55;13.65;;;29.00;99.90;;;;;;5053610;28;20171;-69
2021/07/22 07:47:55;;;;;;;17.30;14.00;;;29.10;99.90;;;;;;5054731;28;20175;-69
2021/07/22 07:50:21;;;;;;;16.98;14.13;;;29.30;99.90;;;;;;5069220;28;20335;-69
2021/07/22 07:52:47;;;;;;;18.25;14.15;;;29.50;99.90;;;;;;5054405;28;20203;-69
2021/07/22 07:55:14;;;;;;;17.02;14.23;;;29.60;99.90;;;;;;5054032;28;20179;-69
2021/07/22 07:57:40;;;;;;;15.02;12.90;;;29.70;99.90;;;;;;5054432;28;20682;-69
2021/07/22 08:00:07;;;;;;;16.60;14.60;;;29.80;99.90;;;;;;5035715;28;20210;-69
2021/07/22 08:02:33;;;;;;;14.15;12.32;;;30.00;99.90;;;;;;5051790;28;20225;-69
2021/07/22 08:04:59;;;;;;;16.05;11.98;;;29.80;99.90;;;;;;5069117;28;20175;-69
2021/07/22 08:07:25;;;;;;;15.10;11.52;;;29.90;99.90;;;;;;5054145;28;20171;-69
2021/07/22 08:09:51;;;;;;;15.38;11.65;;;29.90;99.90;;;;;;5053547;28;20285;-69
2021/07/22 08:12:17;;;;;;;17.30;10.80;;;29.60;99.90;;;;;;5036009;28;20660;-69
2021/07/22 08:14:43;;;;;;;13.27;11.70;;;29.60;99.90;;;;;;5035594;28;20265;-69
2021/07/22 08:17:14;;;;;;;17.50;11.55;;;29.70;99.90;;;;;;5054117;28;20174;-69
2021/07/22 08:19:39;;;;;;;14.25;10.68;;;29.70;99.90;;;;;;5053522;28;20256;-69
2021/07/22 08:22:05;;;;;;;13.68;10.73;;;29.60;99.90;;;;;;5053752;28;20175;-69
2021/07/22 08:24:30;;;;;;;12.43;10.48;;;29.80;99.90;;;;;;5053114;28;20175;-69
2021/07/22 08:26:56;;;;;;;12.18;10.63;;;30.20;99.90;;;;;;5053838;28;20175;-69
2021/07/22 08:29:22;;;;;;;11.82;9.55;;;30.60;99.90;;;;;;5053292;28;20191;-69
2021/07/22 08:31:47;;;;;;;11.07;9.55;;;30.80;99.90;;;;;;5053687;28;20228;-69
2021/07/22 08:34:15;;;;;;;10.80;9.70;;;31.00;99.90;;;;;;5052683;28;20328;-69
2021/07/22 08:36:42;;;;;;;12.48;10.95;;;31.40;99.90;;;;;;5053579;28;20565;-69
2021/07/22 08:39:08;;;;;;;11.15;9.95;;;31.50;99.90;;;;;;5035332;28;20333;-69
2021/07/22 08:41:34;;;;;;;13.63;9.55;;;31.70;99.90;;;;;;5053434;28;20181;-69
2021/07/22 08:44:02;;;;;;;9.38;8.45;;;32.00;99.90;;;;;;5053249;28;20166;-69
2021/07/22 08:46:28;;;;;;;10.63;9.35;;;32.20;99.90;;;;;;5053085;28;20217;-69
2021/07/22 08:48:55;;;;;;;10.15;9.15;;;32.20;99.90;;;;;;5078258;22;20703;-67
2021/07/22 08:51:21;;;;;;;11.27;9.45;;;32.30;99.90;;;;;;5072440;28;20189;-67
2021/07/22 08:53:47;;;;;;;11.55;9.65;;;32.00;99.90;;;;;;5073054;28;20174;-67
2021/07/22 08:56:13;;;;;;;15.02;10.75;;;32.10;99.90;;;;;;5072861;28;20232;-67
2021/07/22 08:58:40;;;;;;;10.25;9.15;;;32.20;99.90;;;;;;5073012;28;20232;-67
2021/07/22 09:01:10;;;;;;;9.65;8.48;;;32.20;99.90;;;;;;5053364;28;20672;-67
2021/07/22 09:03:35;;;;;;;10.50;8.75;;;32.20;99.90;;;;;;5052457;28;20640;-67
2021/07/22 09:06:15;;;;;;;11.07;9.13;;;32.50;99.90;;;;;;5052767;28;20209;-66
2021/07/22 09:08:41;;;;;;;11.90;9.65;;;32.70;99.90;;;;;;5039509;28;20258;-67
2021/07/22 09:11:09;;;;;;;11.18;10.05;;;32.70;99.90;;;;;;5052933;28;20273;-67
2021/07/22 09:13:35;;;;;;;9.75;8.40;;;32.70;99.90;;;;;;5051410;28;20255;-67
2021/07/22 09:16:01;;;;;;;10.02;9.00;;;32.80;99.90;;;;;;5051813;28;20261;-67
2021/07/22 09:18:35;;;;;;;10.35;9.35;;;33.30;99.90;;;;;;5052101;28;20756;-67
2021/07/22 09:21:24;;;;;;;10.25;8.65;;;33.10;99.90;;;;;;5051217;28;20206;-67
2021/07/22 09:24:02;;;;;;;10.88;9.65;;;32.70;99.90;;;;;;5052218;28;20709;-67
2021/07/22 09:26:32;;;;;;;11.88;10.77;;;32.50;99.90;;;;;;5052470;28;20648;-67
2021/07/22 09:29:12;;;;;;;10.52;8.60;;;32.20;99.90;;;;;;5052409;28;20178;-66
2021/07/22 09:31:38;;;;;;;11.05;9.43;;;32.30;99.90;;;;;;5052258;28;20182;-67
2021/07/22 09:34:30;;;;;;;11.43;10.23;;;32.20;99.90;;;;;;5052001;28;20187;-67
2021/07/22 09:37:07;;;;;;;10.52;9.52;;;31.50;99.90;;;;;;5031688;28;20185;-67
2021/07/22 09:39:37;;;;;;;11.93;9.38;;;31.40;99.90;;;;;;5038470;28;20245;-67
2021/07/22 09:42:04;;;;;;;10.40;9.07;;;32.10;99.90;;;;;;5052388;28;20163;-67
2021/07/22 09:44:35;;;;;;;10.00;9.02;;;32.80;99.90;;;;;;5051509;28;20186;-67
2021/07/22 09:47:03;;;;;;;11.02;9.70;;;33.20;99.90;;;;;;5052404;28;20167;-66
2021/07/22 09:49:36;;;;;;;10.77;9.68;;;33.50;99.90;;;;;;5051649;28;20350;-67
2021/07/22 09:52:29;;;;;;;10.45;9.32;;;33.60;99.90;;;;;;5052130;28;20171;-67
2021/07/22 09:54:55;;;;;;;12.88;11.57;;;33.60;99.90;;;;;;5048542;28;20194;-67
2021/07/22 09:57:22;;;;;;;11.73;9.02;;;34.10;99.90;;;;;;5051710;28;20175;-67
2021/07/22 09:59:50;;;;;;;11.93;9.52;;;33.90;99.90;;;;;;5051722;28;20289;-67
2021/07/22 10:02:19;;;;;;;12.55;10.02;;;34.40;99.90;;;;;;5051724;28;20252;-67
2021/07/22 10:05:06;;;;;;;11.85;9.85;;;34.20;99.90;;;;;;5050821;28;20698;-67
2021/07/22 10:07:35;;;;;;;11.50;10.18;;;33.60;99.90;;;;;;5051658;28;20203;-67
2021/07/22 10:10:02;;;;;;;14.38;10.07;;;33.50;99.90;;;;;;5051587;28;20186;-67
2021/07/22 10:12:29;;;;;;;12.18;10.05;;;33.70;99.90;;;;;;5049099;28;20189;-67
2021/07/22 10:14:57;;;;;;;11.73;9.30;;;33.80;99.90;;;;;;5051572;28;20175;-66
2021/07/22 10:17:34;;;;;;;12.15;10.18;;;33.60;99.90;;;;;;5050523;28;20218;-66
2021/07/22 10:20:06;;;;;;;12.32;11.02;;;32.70;99.90;;;;;;5047624;28;20746;-66
2021/07/22 10:22:32;;;;;;;10.73;9.63;;;31.60;99.90;;;;;;5034634;28;20167;-66
2021/07/22 10:24:58;;;;;;;11.68;9.65;;;31.10;99.90;;;;;;5051186;28;20173;-66
2021/07/22 10:27:24;;;;;;;13.75;10.40;;;31.20;99.90;;;;;;5051192;28;20174;-66
2021/07/22 10:29:51;;;;;;;13.30;9.82;;;30.60;99.90;;;;;;5051415;28;20203;-67
2021/07/22 10:32:23;;;;;;;14.25;11.10;;;30.30;99.90;;;;;;5051050;28;20195;-67
2021/07/22 10:34:52;;;;;;;11.05;9.73;;;30.10;99.90;;;;;;5051219;28;20213;-67
2021/07/22 10:37:19;;;;;;;11.85;9.65;;;30.00;99.90;;;;;;5051084;28;20201;-66
2021/07/22 10:40:08;;;;;;;16.98;10.82;;;30.10;99.90;;;;;;5051015;28;20271;-67
2021/07/22 10:42:51;;;;;;;11.70;10.50;;;30.00;99.90;;;;;;5051091;28;20273;-66
2021/07/22 10:45:20;;;;;;;15.80;10.43;;;30.00;99.90;;;;;;5050885;28;20535;-67
2021/07/22 10:48:01;;;;;;;13.18;10.52;;;30.20;99.90;;;;;;5051158;28;20232;-66
2021/07/22 10:51:06;;;;;;;13.88;9.93;;;30.60;99.90;;;;;;5051081;28;20347;-66
2021/07/22 10:53:36;;;;;;;12.23;10.30;;;31.00;99.90;;;;;;4989225;28;20188;-67
2021/07/22 10:56:02;;;;;;;12.00;10.70;;;31.50;99.90;;;;;;4989471;28;20231;-67
2021/07/22 10:58:30;;;;;;;13.05;10.02;;;32.10;99.90;;;;;;5020003;28;20198;-67
2021/07/22 11:01:00;;;;;;;13.30;10.35;;;32.20;99.90;;;;;;5050774;28;20213;-68
2021/07/22 11:03:40;;;;;;;12.15;10.80;;;32.30;99.90;;;;;;5049755;28;20232;-68
2021/07/22 11:06:15;;;;;;;14.70;10.70;;;31.60;99.90;;;;;;5052834;28;20163;-66
2021/07/22 11:08:42;;;;;;;11.90;10.63;;;31.10;99.90;;;;;;5058956;28;20182;-67
2021/07/22 11:11:08;;;;;;;12.35;10.27;;;31.10;99.90;;;;;;5050897;28;20194;-67
2021/07/22 11:13:37;;;;;;;11.32;10.18;;;31.40;99.90;;;;;;5050941;28;20265;-67
2021/07/22 11:16:08;;;;;;;11.63;9.60;;;31.90;99.90;;;;;;5051108;28;20171;-66
2021/07/22 11:18:42;;;;;;;14.52;10.80;;;32.60;99.90;;;;;;5050431;28;20574;-67
2021/07/22 11:21:09;;;;;;;9.68;8.65;;;33.40;99.90;;;;;;5050055;28;20197;-67
2021/07/22 11:23:35;;;;;;;11.13;9.73;;;33.90;99.90;;;;;;5049521;28;20187;-66
2021/07/22 11:26:01;;;;;;;13.52;11.13;;;33.30;99.90;;;;;;5050935;28;20194;-66
2021/07/22 11:28:27;;;;;;;11.77;10.68;;;32.20;99.90;;;;;;5050569;28;20187;-67
2021/07/22 11:31:05;;;;;;;12.93;9.60;;;31.80;99.90;;;;;;5050926;28;20660;-67
2021/07/22 11:33:38;;;;;;;13.90;10.50;;;31.20;99.90;;;;;;5050242;28;20665;-67
2021/07/22 11:36:22;;;;;;;12.13;10.05;;;30.80;99.90;;;;;;5049976;28;20178;-67
2021/07/22 11:38:51;;;;;;;13.32;10.65;;;30.20;99.90;;;;;;5054535;28;20175;-67
2021/07/22 11:41:17;;;;;;;13.00;10.65;;;29.80;99.90;;;;;;5054367;28;20169;-67
2021/07/22 11:43:48;;;;;;;18.80;11.60;;;30.20;99.90;;;;;;5054030;28;20213;-67
2021/07/22 11:46:33;;;;;;;12.45;10.68;;;30.60;99.90;;;;;;5054547;28;20178;-66
2021/07/22 11:49:07;;;;;;;12.55;10.80;;;31.20;99.90;;;;;;5034405;28;20222;-67
2021/07/22 11:51:34;;;;;;;12.38;10.23;;;31.70;99.90;;;;;;5035491;28;20207;-68
2021/07/22 11:54:02;;;;;;;11.48;9.52;;;32.20;99.90;;;;;;5054030;28;20179;-66
2021/07/22 11:56:33;;;;;;;11.88;10.55;;;32.80;99.90;;;;;;5053996;28;20182;-67
2021/07/22 11:59:00;;;;;;;9.82;8.80;;;33.00;99.90;;;;;;5034332;28;20632;-67
2021/07/22 12:01:25;;;;;;;11.75;10.57;;;33.70;99.90;;;;;;5034156;28;20168;-66
2021/07/22 12:03:51;;;;;;;12.85;9.80;;;33.70;99.90;;;;;;5053130;28;20210;-66
2021/07/22 12:06:24;;;;;;;11.60;9.77;;;33.80;99.90;;;;;;5053914;28;20635;-67
2021/07/22 12:09:07;;;;;;;12.50;10.07;;;33.90;99.90;;;;;;5053894;28;20647;-67
2021/07/22 12:11:53;;;;;;;12.75;10.38;;;33.80;99.90;;;;;;5054014;28;20175;-67
2021/07/22 12:14:29;;;;;;;13.05;10.45;;;34.00;99.90;;;;;;5033582;28;20167;-67
2021/07/22 12:16:56;;;;;;;11.50;10.27;;;33.80;99.90;;;;;;5035642;28;20648;-66
2021/07/22 12:19:24;;;;;;;14.35;10.65;;;33.50;99.90;;;;;;5033813;28;20294;-67
2021/07/22 12:22:16;;;;;;;12.00;10.10;;;33.30;99.90;;;;;;5034408;28;20629;-66
2021/07/22 12:24:41;;;;;;;10.95;9.70;;;33.40;99.90;;;;;;5033471;28;20233;-67
2021/07/22 12:27:26;;;;;;;11.45;9.75;;;33.60;99.90;;;;;;5035863;28;20597;-66
2021/07/22 12:29:51;;;;;;;9.75;8.75;;;34.00;99.90;;;;;;5053697;28;20691;-67